createdAt,value
2018-04-27T00:01:32.701Z,8.63
2018-04-27T00:03:59.101Z,8.60
2018-04-27T00:06:25.847Z,8.80
2018-04-27T00:08:52.260Z,7.60
2018-04-27T00:11:18.728Z,7.20
2018-04-27T00:13:45.147Z,7.70
2018-04-27T00:16:11.611Z,7.65
2018-04-27T00:18:38.033Z,7.90
2018-04-27T00:21:04.503Z,6.75
2018-04-27T00:23:30.916Z,6.85
2018-04-27T00:25:57.480Z,7.55
2018-04-27T00:28:23.915Z,7.05
2018-04-27T00:30:50.297Z,6.55
2018-04-27T00:33:16.747Z,6.10
2018-04-27T00:35:43.895Z,6.47
2018-04-27T00:38:10.452Z,6.32
2018-04-27T00:40:36.879Z,6.50
2018-04-27T00:43:04.039Z,5.95
2018-04-27T00:45:30.598Z,7.10
2018-04-27T00:47:57.016Z,6.53
2018-04-27T00:50:23.576Z,6.68
2018-04-27T00:53:02.259Z,6.47
2018-04-27T00:55:28.681Z,6.43
2018-04-27T00:57:55.172Z,6.53
2018-04-27T01:00:21.670Z,6.12
2018-04-27T01:02:48.147Z,7.30
2018-04-27T01:05:14.707Z,6.50
2018-04-27T01:07:41.893Z,6.35
2018-04-27T01:10:08.304Z,5.65
2018-04-27T01:12:34.759Z,5.80
2018-04-27T01:15:01.216Z,6.30
2018-04-27T01:17:27.621Z,5.75
2018-04-27T01:19:54.076Z,5.93
2018-04-27T01:22:20.541Z,5.22
2018-04-27T01:24:46.976Z,5.75
2018-04-27T01:27:13.430Z,5.20
2018-04-27T01:29:39.853Z,5.60
2018-04-27T01:32:07.052Z,5.50
2018-04-27T01:34:33.471Z,5.40
2018-04-27T01:36:59.975Z,5.60
2018-04-27T01:39:27.236Z,5.80
2018-04-27T01:41:53.613Z,5.53
2018-04-27T01:44:20.093Z,5.57
2018-04-27T01:46:47.368Z,5.72
2018-04-27T01:49:13.756Z,5.12
2018-04-27T01:51:40.247Z,5.53
2018-04-27T01:54:06.620Z,5.80
2018-04-27T01:56:33.144Z,5.80
2018-04-27T01:58:59.541Z,4.87
2018-04-27T02:01:26.131Z,5.45
2018-04-27T02:03:53.273Z,5.30
2018-04-27T02:06:19.794Z,4.90
2018-04-27T02:08:46.179Z,5.35
2018-04-27T02:11:12.695Z,5.20
2018-04-27T02:13:39.087Z,5.32
2018-04-27T02:16:05.503Z,4.85
2018-04-27T02:18:31.923Z,5.28
2018-04-27T02:20:58.372Z,5.43
2018-04-27T02:23:24.824Z,4.70
2018-04-27T02:25:51.235Z,5.30
2018-04-27T02:28:17.651Z,5.12
2018-04-27T02:30:44.069Z,5.20
2018-04-27T02:33:10.503Z,5.20
2018-04-27T02:35:36.985Z,5.25
2018-04-27T02:38:03.449Z,5.15
2018-04-27T02:40:30.580Z,5.15
2018-04-27T02:42:57.736Z,5.65
2018-04-27T02:45:24.868Z,5.57
2018-04-27T02:47:51.288Z,6.03
2018-04-27T02:50:17.779Z,6.25
2018-04-27T02:52:44.174Z,5.65
2018-04-27T02:55:11.371Z,5.53
2018-04-27T02:57:37.836Z,5.35
2018-04-27T03:00:05.155Z,5.15
2018-04-27T03:02:31.661Z,5.65
2018-04-27T03:04:58.800Z,5.20
2018-04-27T03:07:25.984Z,6.05
2018-04-27T03:09:52.350Z,5.47
2018-04-27T03:12:18.824Z,6.12
2018-04-27T03:14:46.077Z,5.18
2018-04-27T03:17:12.495Z,6.12
2018-04-27T03:19:39.732Z,7.45
2018-04-27T03:22:06.301Z,5.90
2018-04-27T03:24:32.735Z,5.53
2018-04-27T03:26:59.374Z,5.53
2018-04-27T03:29:25.760Z,5.22
2018-04-27T03:31:52.616Z,5.05
2018-04-27T03:34:19.179Z,5.30
2018-04-27T03:36:45.536Z,6.15
2018-04-27T03:39:12.008Z,5.28
2018-04-27T03:44:34.692Z,5.00
2018-04-27T03:47:01.213Z,5.45
2018-04-27T03:49:27.715Z,4.72
2018-04-27T03:51:54.969Z,6.00
2018-04-27T03:54:22.006Z,4.78
2018-04-27T03:56:48.503Z,5.95
2018-04-27T03:59:14.994Z,6.05
2018-04-27T04:01:54.381Z,5.00
2018-04-27T04:04:33.107Z,5.37
2018-04-27T04:06:59.585Z,5.40
2018-04-27T04:09:26.800Z,5.30
2018-04-27T04:11:53.260Z,5.37
2018-04-27T04:14:20.467Z,5.82
2018-04-27T04:16:46.984Z,5.40
2018-04-27T04:19:13.503Z,5.57
2018-04-27T04:21:40.022Z,5.80
2018-04-27T04:24:07.329Z,5.55
2018-04-27T04:26:33.790Z,5.37
2018-04-27T04:29:00.249Z,5.25
2018-04-27T04:31:27.482Z,5.43
2018-04-27T04:33:53.901Z,6.03
2018-04-27T04:36:20.522Z,5.55
2018-04-27T04:38:47.012Z,5.53
2018-04-27T04:41:13.595Z,5.68
2018-04-27T04:43:40.085Z,5.93
2018-04-27T04:46:06.618Z,5.57
2018-04-27T04:48:33.083Z,6.18
2018-04-27T04:50:59.580Z,5.95
2018-04-27T04:53:26.801Z,5.40
2018-04-27T04:55:53.270Z,5.87
2018-04-27T04:58:19.778Z,6.30
2018-04-27T05:00:47.176Z,6.18
2018-04-27T05:03:13.843Z,6.12
2018-04-27T05:05:40.334Z,5.18
2018-04-27T05:08:07.049Z,5.78
2018-04-27T05:10:34.594Z,5.45
2018-04-27T05:13:01.002Z,6.22
2018-04-27T05:15:27.538Z,6.25
2018-04-27T05:17:54.047Z,6.47
2018-04-27T05:20:20.264Z,5.72
2018-04-27T05:22:46.737Z,5.95
2018-04-27T05:25:13.692Z,5.35
2018-04-27T05:27:40.335Z,5.50
2018-04-27T05:30:06.857Z,6.13
2018-04-27T05:32:33.986Z,6.03
2018-04-27T05:35:00.690Z,5.50
2018-04-27T05:40:23.518Z,6.87
2018-04-27T05:42:49.989Z,6.70
2018-04-27T05:45:17.242Z,6.27
2018-04-27T05:47:44.482Z,6.97
2018-04-27T05:50:11.773Z,7.03
2018-04-27T05:52:38.277Z,7.17
2018-04-27T05:55:05.499Z,6.90
2018-04-27T05:57:32.049Z,7.07
2018-04-27T05:59:58.589Z,7.10
2018-04-27T06:02:25.154Z,7.93
2018-04-27T06:04:51.663Z,7.00
2018-04-27T06:07:18.191Z,7.70
2018-04-27T06:09:44.690Z,7.00
2018-04-27T06:12:11.787Z,8.40
2018-04-27T06:14:38.977Z,7.63
2018-04-27T06:17:05.509Z,7.00
2018-04-27T06:19:32.005Z,7.37
2018-04-27T06:21:59.248Z,7.20
2018-04-27T06:24:25.768Z,7.77
2018-04-27T06:26:52.198Z,8.00
2018-04-27T06:29:18.778Z,6.80
2018-04-27T06:31:45.341Z,6.20
2018-04-27T06:34:13.144Z,5.67
2018-04-27T06:36:39.693Z,4.80
2018-04-27T06:39:06.142Z,4.20
2018-04-27T06:41:33.322Z,1.80
2018-04-27T06:44:00.045Z,2.67
2018-04-27T06:46:26.545Z,1.30
2018-04-27T06:48:53.123Z,1.90
2018-04-27T06:51:19.656Z,1.70
2018-04-27T06:53:46.078Z,1.27
2018-04-27T06:56:13.356Z,1.90
2018-04-27T06:58:39.789Z,1.87
2018-04-27T07:01:06.259Z,1.83
2018-04-27T07:03:32.716Z,1.70
2018-04-27T07:05:59.856Z,1.80
2018-04-27T07:08:26.377Z,1.90
2018-04-27T07:10:52.820Z,1.70
2018-04-27T07:13:19.534Z,1.53
2018-04-27T07:15:45.934Z,1.97
2018-04-27T07:18:12.432Z,2.70
2018-04-27T07:20:38.835Z,1.80
2018-04-27T07:23:05.281Z,1.80
2018-04-27T07:25:31.865Z,1.80
2018-04-27T07:27:58.310Z,1.50
2018-04-27T07:30:24.798Z,2.20
2018-04-27T07:32:51.564Z,1.47
2018-04-27T07:35:18.110Z,1.60
2018-04-27T07:37:44.586Z,1.67
2018-04-27T07:40:11.169Z,1.00
2018-04-27T07:42:38.432Z,1.80
2018-04-27T07:45:04.877Z,1.30
2018-04-27T07:47:31.453Z,2.53
2018-04-27T07:49:57.945Z,1.20
2018-04-27T07:52:24.475Z,1.20
2018-04-27T07:54:50.907Z,1.73
2018-04-27T07:57:17.485Z,1.77
2018-04-27T07:59:43.937Z,1.47
2018-04-27T08:02:10.451Z,1.40
2018-04-27T08:04:37.634Z,1.30
2018-04-27T08:07:04.915Z,2.13
2018-04-27T08:09:31.424Z,1.30
2018-04-27T08:11:58.609Z,1.23
2018-04-27T08:14:25.158Z,1.87
2018-04-27T08:16:51.637Z,1.30
2018-04-27T08:19:18.829Z,1.60
2018-04-27T08:21:45.420Z,1.70
2018-04-27T08:24:12.573Z,1.53
2018-04-27T08:26:39.863Z,1.50
2018-04-27T08:29:06.309Z,1.33
2018-04-27T08:31:32.758Z,1.40
2018-04-27T08:33:59.240Z,1.83
2018-04-27T08:36:26.469Z,1.80
2018-04-27T08:38:52.969Z,1.57
2018-04-27T08:41:19.451Z,1.60
2018-04-27T08:43:46.746Z,2.07
2018-04-27T08:46:13.160Z,1.67
2018-04-27T08:48:39.690Z,1.90
2018-04-27T08:51:06.163Z,1.90
2018-04-27T08:53:32.659Z,1.90
2018-04-27T08:55:59.142Z,2.57
2018-04-27T08:58:25.646Z,2.70
2018-04-27T09:00:52.157Z,2.03
2018-04-27T09:03:18.617Z,2.00
2018-04-27T09:05:45.115Z,1.70
2018-04-27T09:08:12.329Z,1.97
2018-04-27T09:10:38.957Z,2.80
2018-04-27T09:13:06.352Z,2.57
2018-04-27T09:15:34.266Z,3.20
2018-04-27T09:18:00.782Z,2.10
2018-04-27T09:20:27.313Z,1.93
2018-04-27T09:22:53.759Z,2.80
2018-04-27T09:25:20.397Z,3.20
2018-04-27T09:27:53.956Z,2.70
2018-04-27T09:30:20.415Z,1.90
2018-04-27T09:32:46.845Z,2.53
2018-04-27T09:35:14.272Z,1.80
2018-04-27T09:37:40.750Z,2.60
2018-04-27T09:40:07.209Z,2.50
2018-04-27T09:42:33.699Z,2.60
2018-04-27T09:45:00.873Z,3.00
2018-04-27T09:47:27.507Z,3.53
2018-04-27T09:49:53.997Z,3.50
2018-04-27T09:52:20.579Z,2.03
2018-04-27T09:54:47.124Z,2.20
2018-04-27T09:57:13.659Z,2.87
2018-04-27T09:59:40.352Z,3.87
2018-04-27T10:02:07.779Z,2.93
2018-04-27T10:04:34.267Z,3.47
2018-04-27T10:07:00.897Z,2.80
2018-04-27T10:09:27.359Z,2.67
2018-04-27T10:11:53.944Z,3.03
2018-04-27T10:14:21.326Z,2.13
2018-04-27T10:16:47.927Z,4.50
2018-04-27T10:19:14.447Z,2.87
2018-04-27T10:21:40.956Z,3.03
2018-04-27T10:24:07.498Z,3.67
2018-04-27T10:26:34.289Z,2.50
2018-04-27T10:29:01.689Z,3.47
2018-04-27T10:31:28.130Z,2.27
2018-04-27T10:33:54.768Z,2.67
2018-04-27T10:36:21.230Z,3.37
2018-04-27T10:38:47.820Z,2.40
2018-04-27T10:41:14.367Z,3.30
2018-04-27T10:43:40.855Z,3.30
2018-04-27T10:46:08.128Z,2.03
2018-04-27T10:48:34.652Z,3.30
2018-04-27T10:51:01.937Z,2.90
2018-04-27T10:53:28.568Z,3.97
2018-04-27T10:55:55.039Z,3.80
2018-04-27T10:58:21.493Z,3.13
2018-04-27T11:00:48.661Z,1.70
2018-04-27T11:03:15.221Z,3.50
2018-04-27T11:05:42.010Z,3.20
2018-04-27T11:08:08.559Z,3.30
2018-04-27T11:10:35.934Z,3.83
2018-04-27T11:13:02.368Z,3.77
2018-04-27T11:15:29.001Z,4.03
2018-04-27T11:17:55.453Z,3.57
2018-04-27T11:20:22.026Z,3.80
2018-04-27T11:22:48.449Z,4.20
2018-04-27T11:25:14.937Z,4.00
2018-04-27T11:27:42.190Z,4.27
2018-04-27T11:30:10.376Z,4.60
2018-04-27T11:32:37.535Z,4.90
2018-04-27T11:35:03.967Z,4.83
2018-04-27T11:37:33.987Z,4.60
2018-04-27T11:40:00.449Z,3.87
2018-04-27T11:42:27.389Z,3.80
2018-04-27T11:44:53.919Z,3.73
2018-04-27T11:47:21.093Z,3.17
2018-04-27T11:49:47.664Z,3.77
2018-04-27T11:52:22.005Z,4.10
2018-04-27T11:54:48.465Z,5.43
2018-04-27T11:57:15.100Z,4.20
2018-04-27T11:59:41.579Z,5.00
2018-04-27T12:02:08.929Z,4.90
2018-04-27T12:04:36.177Z,4.73
2018-04-27T12:07:03.366Z,4.30
2018-04-27T12:09:31.806Z,4.30
2018-04-27T12:11:58.686Z,4.97
2018-04-27T12:14:25.193Z,5.93
2018-04-27T12:16:52.494Z,4.47
2018-04-27T12:19:19.575Z,3.90
2018-04-27T12:21:46.004Z,4.70
2018-04-27T12:24:12.485Z,4.63
2018-04-27T12:26:38.981Z,4.57
2018-04-27T12:29:05.447Z,5.07
2018-04-27T12:31:32.038Z,4.80
2018-04-27T12:33:59.171Z,4.60
2018-04-27T12:36:25.641Z,4.97
2018-04-27T12:38:52.997Z,3.10
2018-04-27T12:41:19.526Z,5.63
2018-04-27T12:43:46.799Z,5.47
2018-04-27T12:46:13.598Z,5.17
2018-04-27T12:48:42.500Z,4.37
2018-04-27T12:51:09.208Z,6.27
2018-04-27T12:53:36.105Z,5.13
2018-04-27T12:56:03.327Z,4.27
2018-04-27T12:58:29.887Z,5.17
2018-04-27T13:00:57.088Z,3.80
2018-04-27T13:03:23.830Z,4.53
2018-04-27T13:05:50.504Z,3.50
2018-04-27T13:08:17.173Z,4.90
2018-04-27T13:10:43.972Z,5.27
2018-04-27T13:13:10.575Z,5.60
2018-04-27T13:15:37.144Z,5.00
2018-04-27T13:18:03.914Z,4.50
2018-04-27T13:20:31.211Z,4.90
2018-04-27T13:22:59.184Z,4.50
2018-04-27T13:25:25.811Z,4.53
2018-04-27T13:27:52.766Z,5.90
2018-04-27T13:30:21.363Z,4.57
2018-04-27T13:32:47.811Z,5.00
2018-04-27T13:35:14.312Z,5.77
2018-04-27T13:37:40.785Z,4.50
2018-04-27T13:40:07.449Z,4.57
2018-04-27T13:42:34.689Z,5.03
2018-04-27T13:45:02.065Z,4.40
2018-04-27T13:47:28.606Z,4.30
2018-04-27T13:49:55.395Z,5.60
2018-04-27T13:52:22.002Z,4.40
2018-04-27T13:54:48.551Z,5.20
2018-04-27T13:57:15.187Z,4.83
2018-04-27T13:59:41.670Z,4.30
2018-04-27T14:02:08.957Z,4.17
2018-04-27T14:04:35.506Z,3.93
2018-04-27T14:07:01.996Z,4.50
2018-04-27T14:09:29.352Z,4.33
2018-04-27T14:11:56.757Z,4.13
2018-04-27T14:14:23.383Z,4.67
2018-04-27T14:16:49.875Z,3.93
2018-04-27T14:19:17.085Z,4.60
2018-04-27T14:21:43.825Z,4.27
2018-04-27T14:24:10.353Z,4.30
2018-04-27T14:26:36.932Z,5.10
2018-04-27T14:29:04.321Z,4.57
2018-04-27T14:31:31.050Z,4.30
2018-04-27T14:33:57.583Z,4.37
2018-04-27T14:36:24.157Z,4.23
2018-04-27T14:38:50.634Z,4.10
2018-04-27T14:41:17.912Z,4.87
2018-04-27T14:43:44.515Z,4.50
2018-04-27T14:46:11.793Z,4.50
2018-04-27T14:48:38.336Z,4.50
2018-04-27T14:51:04.878Z,4.20
2018-04-27T14:53:31.361Z,4.80
2018-04-27T14:55:57.895Z,4.73
2018-04-27T14:58:24.382Z,3.93
2018-04-27T15:00:51.802Z,4.90
2018-04-27T15:03:18.388Z,4.40
2018-04-27T15:05:44.918Z,4.30
2018-04-27T15:08:11.371Z,4.40
2018-04-27T15:10:37.885Z,4.00
2018-04-27T15:13:04.400Z,3.93
2018-04-27T15:15:31.179Z,3.40
2018-04-27T15:17:57.651Z,3.80
2018-04-27T15:20:24.917Z,3.43
2018-04-27T15:22:52.155Z,3.00
2018-04-27T15:25:18.729Z,3.07
2018-04-27T15:27:45.175Z,4.03
2018-04-27T15:30:11.764Z,4.70
2018-04-27T15:32:38.977Z,4.43
2018-04-27T15:35:05.422Z,4.50
2018-04-27T15:37:31.993Z,3.83
2018-04-27T15:39:59.223Z,3.60
2018-04-27T15:42:25.665Z,4.53
2018-04-27T15:44:53.063Z,3.50
2018-04-27T15:47:19.570Z,3.67
2018-04-27T15:49:46.010Z,3.50
2018-04-27T15:52:12.476Z,4.00
2018-04-27T15:54:39.051Z,4.00
2018-04-27T15:57:05.583Z,4.10
2018-04-27T15:59:32.139Z,4.67
2018-04-27T16:01:59.417Z,4.20
2018-04-27T16:04:26.532Z,3.40
2018-04-27T16:06:53.947Z,3.60
2018-04-27T16:09:20.535Z,4.30
2018-04-27T16:11:47.046Z,4.03
2018-04-27T16:14:13.489Z,4.27
2018-04-27T16:16:40.944Z,5.37
2018-04-27T16:19:08.215Z,4.10
2018-04-27T16:21:35.566Z,4.03
2018-04-27T16:24:03.433Z,3.93
2018-04-27T16:26:29.986Z,4.13
2018-04-27T16:28:56.495Z,3.50
2018-04-27T16:31:23.741Z,3.60
2018-04-27T16:33:50.948Z,3.50
2018-04-27T16:36:17.417Z,3.57
2018-04-27T16:38:43.891Z,3.30
2018-04-27T16:41:10.405Z,3.77
2018-04-27T16:43:37.755Z,3.90
2018-04-27T16:46:04.222Z,4.70
2018-04-27T16:48:30.696Z,3.93
2018-04-27T16:50:57.183Z,3.30
2018-04-27T16:53:23.793Z,3.13
2018-04-27T16:55:51.188Z,3.30
2018-04-27T16:58:17.865Z,3.87
2018-04-27T17:00:44.362Z,4.03
2018-04-27T17:03:10.862Z,3.73
2018-04-27T17:05:38.150Z,3.97
2018-04-27T17:08:04.671Z,3.37
2018-04-27T17:10:31.268Z,3.50
2018-04-27T17:12:57.844Z,3.33
2018-04-27T17:15:24.301Z,3.33
2018-04-27T17:17:51.017Z,3.40
2018-04-27T17:20:17.595Z,3.70
2018-04-27T17:22:44.850Z,3.20
2018-04-27T17:25:11.286Z,3.20
2018-04-27T17:27:38.555Z,3.23
2018-04-27T17:30:05.111Z,3.23
2018-04-27T17:32:32.313Z,3.30
2018-04-27T17:34:58.781Z,3.40
2018-04-27T17:37:26.041Z,3.83
2018-04-27T17:39:53.381Z,3.77
2018-04-27T17:42:20.709Z,3.53
2018-04-27T17:44:47.292Z,3.47
2018-04-27T17:47:13.806Z,3.50
2018-04-27T17:49:40.296Z,3.50
2018-04-27T17:52:06.839Z,3.43
2018-04-27T17:54:33.443Z,3.37
2018-04-27T17:56:59.893Z,3.40
2018-04-27T17:59:26.467Z,3.30
2018-04-27T18:01:52.970Z,3.60
2018-04-27T18:04:19.589Z,3.50
2018-04-27T18:06:46.061Z,3.50
2018-04-27T18:09:12.569Z,3.17
2018-04-27T18:11:39.033Z,3.80
2018-04-27T18:14:05.567Z,3.70
2018-04-27T18:16:32.244Z,3.00
2018-04-27T18:18:59.471Z,3.47
2018-04-27T18:21:26.007Z,3.23
2018-04-27T18:23:52.518Z,3.13
2018-04-27T18:26:19.238Z,3.07
2018-04-27T18:28:46.640Z,3.10
2018-04-27T18:31:13.094Z,3.00
2018-04-27T18:33:40.384Z,3.17
2018-04-27T18:36:06.950Z,3.47
2018-04-27T18:38:33.483Z,3.03
2018-04-27T18:41:00.020Z,4.10
2018-04-27T18:43:26.486Z,2.97
2018-04-27T18:45:53.730Z,3.27
2018-04-27T18:48:20.942Z,3.57
2018-04-27T18:50:51.143Z,3.50
2018-04-27T18:53:17.612Z,3.90
2018-04-27T18:55:44.214Z,4.30
2018-04-27T18:58:12.493Z,4.03
2018-04-27T19:00:38.963Z,3.80
2018-04-27T19:03:05.521Z,4.30
2018-04-27T19:05:31.981Z,3.50
2018-04-27T19:07:58.473Z,4.83
2018-04-27T19:10:29.779Z,4.40
2018-04-27T19:12:56.365Z,4.07
2018-04-27T19:15:23.632Z,4.50
2018-04-27T19:17:56.205Z,4.93
2018-04-27T19:20:23.290Z,5.07
2018-04-27T19:22:49.870Z,4.67
2018-04-27T19:25:17.233Z,4.67
2018-04-27T19:27:44.437Z,5.70
2018-04-27T19:30:10.993Z,4.50
2018-04-27T19:32:37.550Z,4.33
2018-04-27T19:35:04.062Z,4.83
2018-04-27T19:37:34.569Z,4.17
2018-04-27T19:40:01.170Z,4.43
2018-04-27T19:42:28.422Z,5.70
2018-04-27T19:44:55.668Z,4.00
2018-04-27T19:47:22.205Z,4.20
2018-04-27T19:49:49.599Z,4.03
2018-04-27T19:52:16.256Z,5.20
2018-04-27T19:54:42.891Z,4.90
2018-04-27T19:57:09.405Z,4.87
2018-04-27T19:59:36.812Z,5.03
2018-04-27T20:02:04.273Z,4.80
2018-04-27T20:04:31.629Z,4.10
2018-04-27T20:06:59.066Z,4.70
2018-04-27T20:09:25.629Z,4.60
2018-04-27T20:11:52.197Z,4.40
2018-04-27T20:14:29.413Z,4.07
2018-04-27T20:16:56.345Z,4.57
2018-04-27T20:19:22.797Z,4.50
2018-04-27T20:21:49.274Z,4.83
2018-04-27T20:34:00.794Z,4.30
2018-04-27T20:36:28.062Z,4.63
2018-04-27T20:38:55.261Z,4.70
2018-04-27T20:41:22.662Z,4.47
2018-04-27T20:43:49.886Z,4.63
2018-04-27T20:46:16.511Z,5.20
2018-04-27T20:48:43.753Z,5.07
2018-04-27T20:51:10.225Z,6.30
2018-04-27T20:53:41.786Z,6.00
2018-04-27T20:56:08.952Z,5.97
2018-04-27T20:58:35.433Z,5.80
2018-04-27T21:01:01.908Z,4.87
2018-04-27T21:03:29.882Z,5.50
2018-04-27T21:05:57.154Z,5.43
2018-04-27T21:08:23.662Z,7.60
2018-04-27T21:10:51.018Z,6.60
2018-04-27T21:13:18.261Z,7.30
2018-04-27T21:15:45.537Z,6.40
2018-04-27T21:18:14.777Z,6.27
2018-04-27T21:20:41.231Z,6.23
2018-04-27T21:23:07.741Z,6.50
2018-04-27T21:25:34.193Z,7.80
2018-04-27T21:28:02.780Z,5.87
2018-04-27T21:30:29.195Z,6.30
2018-04-27T21:33:03.597Z,6.70
2018-04-27T21:38:48.628Z,5.70
2018-04-27T21:41:18.913Z,5.50
2018-04-27T21:43:45.388Z,5.53
2018-04-27T21:46:11.812Z,5.97
2018-04-27T21:48:38.303Z,6.70
2018-04-27T21:51:04.789Z,6.60
2018-04-27T21:53:31.219Z,5.37
2018-04-27T21:55:57.788Z,2.37
2018-04-27T21:58:24.522Z,4.50
2018-04-27T22:00:52.074Z,2.40
2018-04-27T22:03:19.264Z,2.93
2018-04-27T22:08:54.023Z,2.00
2018-04-27T22:11:40.010Z,1.70
2018-04-27T22:14:07.409Z,2.10
2018-04-27T22:16:35.830Z,2.47
2018-04-27T22:19:02.295Z,3.20
2018-04-27T22:21:28.937Z,2.30
2018-04-27T22:24:02.265Z,2.30
2018-04-27T22:26:29.489Z,2.27
2018-04-27T22:28:58.024Z,2.67
2018-04-27T22:31:25.456Z,2.60
2018-04-27T22:33:53.417Z,2.50
2018-04-27T22:36:25.526Z,3.67
2018-04-27T22:38:53.925Z,2.50
2018-04-27T22:41:20.572Z,2.43
2018-04-27T22:43:47.098Z,3.10
2018-04-27T22:46:13.683Z,2.60
2018-04-27T22:48:42.836Z,2.77
2018-04-27T22:54:06.144Z,2.63
2018-04-27T22:59:32.641Z,5.30
2018-04-27T23:02:02.730Z,2.97
2018-04-27T23:04:29.923Z,2.50
2018-04-27T23:06:56.401Z,2.90
2018-04-27T23:09:22.898Z,2.70
2018-04-27T23:11:49.407Z,2.80
2018-04-27T23:14:22.628Z,2.20
2018-04-27T23:16:52.821Z,3.40
2018-04-27T23:19:19.281Z,2.73
2018-04-27T23:21:57.694Z,2.60
2018-04-27T23:24:24.269Z,2.40
2018-04-27T23:26:51.664Z,2.23
2018-04-27T23:29:18.270Z,1.97
2018-04-27T23:31:44.784Z,2.10
2018-04-27T23:34:11.353Z,2.40
2018-04-27T23:36:38.541Z,2.53
2018-04-27T23:39:05.166Z,2.80
2018-04-27T23:41:31.806Z,2.57
2018-04-27T23:43:58.238Z,3.27
2018-04-27T23:46:24.786Z,3.10
2018-04-27T23:48:51.238Z,3.13
2018-04-27T23:51:17.717Z,3.00
2018-04-27T23:53:44.132Z,3.00
2018-04-27T23:56:11.305Z,2.60
2018-04-27T23:58:37.906Z,2.67
